AerodromSadržaj METAR izveštaja
LYBEMETAR LYBE 161530Z 07007KT 040V100 CAVOK 33/18 Q1010 NOSIG=
LYBTMETAR LYBT 161530Z 05005KT 030V090 CAVOK 32/16 Q1010 NOSIG=
LYKVMETAR LYKV 161530Z 12008KT 9999 FEW040 31/17 Q1010 NOSIG=
LYNIMETAR LYNI 161530Z 06007KT 9999 FEW033 29/18 Q1011 NOSIG=
LYVRMETAR LYVR 161530Z 04004KT 360V070 9999 FEW033 32/18 Q1010 NOSIG=
LYUZMETAR LYUZ 161530Z 10003KT 070V130 9999 FEW022 25/15 Q1015=
LYPGMETAR LYPG 161530Z 34005KT 300V020 9999 FEW040 SCT050 BKN090 28/13 Q1011 RETS NOSIG=
LYTVMETAR LYTV 161530Z 33011KT 300V040 9999 SCT056TCU 32/10 Q1010 TEMPO TS FEW040CB SCT050=

Podaci učitani u: 2019-06-16 15:49:44 UTC

METAR, TAF, AIRMET, GAMET, SIGMET

Važna napomena: MET infоrmаciје nа оvim web strаnicаmа imајu infоrmаtivni kаrаktеr, nаmenjene su isključivo vаzduhоplоvnim kоrisnicima, nе smејu sе kоristiti zа bilо kоје kоmеrciјаlnе svrhе, i nе zаmеnjuјu dоkumеntаciјu zа lеt.